Time;durP1;ratioP1;P1;durP2;ratioP2;P2;SDS_P1;SDS_P2;PMS_P1;PMS_P2;Temp;Humidity;BMP_temperature;BMP_pressure;BME280_temperature;BME280_humidity;BME280_pressure;Samples;Min_cycle;Max_cycle;Signal;HPM_P1;HPM_P2
2022/03/18 00:01:23;;;;;;;59.60;25.15;;;;;;;-141.50;100.00;63355.56;5070849;28;20048;-77
2022/03/18 00:03:52;;;;;;;48.90;23.10;;;;;;;-141.50;100.00;63355.56;5072402;28;20044;-81
2022/03/18 00:06:19;;;;;;;53.30;24.15;;;;;;;-141.50;100.00;63355.56;5072973;28;20044;-79
2022/03/18 00:08:46;;;;;;;62.17;26.25;;;;;;;-141.50;100.00;63355.56;5073234;28;20080;-77
2022/03/18 00:11:14;;;;;;;60.72;25.55;;;;;;;-141.50;100.00;63355.56;5072690;28;20076;-79
2022/03/18 00:13:41;;;;;;;54.53;25.17;;;;;;;-141.50;100.00;63355.56;5072369;28;20103;-78
2022/03/18 00:16:07;;;;;;;63.00;28.42;;;;;;;-141.50;100.00;63355.56;5073409;28;20087;-79
2022/03/18 00:18:34;;;;;;;68.60;29.58;;;;;;;-141.50;100.00;63355.56;5074326;28;20052;-80
2022/03/18 00:21:00;;;;;;;69.15;28.55;;;;;;;-141.50;100.00;63355.56;5075686;28;20520;-79
2022/03/18 00:23:27;;;;;;;67.88;28.77;;;;;;;-141.50;100.00;63355.56;5073510;28;20081;-77
2022/03/18 00:25:54;;;;;;;61.65;26.90;;;;;;;-141.50;100.00;63355.56;5078363;28;20529;-77
2022/03/18 00:28:20;;;;;;;59.17;24.73;;;;;;;-141.50;100.00;63355.56;5073131;28;20504;-78
2022/03/18 00:30:48;;;;;;;55.33;23.75;;;;;;;-141.50;100.00;63355.56;5070909;28;20110;-76
2022/03/18 00:33:15;;;;;;;51.70;23.33;;;;;;;-141.50;100.00;63355.56;5071824;28;20127;-76
2022/03/18 00:35:42;;;;;;;50.67;22.58;;;;;;;-141.50;100.00;63355.56;5073781;28;20045;-76
2022/03/18 00:38:08;;;;;;;55.08;24.08;;;;;;;-141.50;100.00;63355.56;5072514;28;20487;-76
2022/03/18 00:40:35;;;;;;;58.00;21.55;;;;;;;-141.50;100.00;63355.56;5072523;28;20072;-79
2022/03/18 00:43:03;;;;;;;47.03;21.50;;;;;;;-141.50;100.00;63355.56;5075753;28;20080;-80
2022/03/18 00:45:31;;;;;;;43.67;19.80;;;;;;;-141.50;100.00;63355.56;5088863;28;20045;-79
2022/03/18 00:53:28;;;;;;;45.00;19.10;;;;;;;-141.50;100.00;63355.56;5095296;28;20051;-78
2022/03/18 00:55:54;;;;;;;46.72;19.83;;;;;;;-141.50;100.00;63355.56;5095377;28;20071;-80
2022/03/18 00:58:21;;;;;;;60.83;19.95;;;;;;;-141.50;100.00;63355.56;5095232;28;20512;-78
2022/03/18 01:00:47;;;;;;;52.65;20.08;;;;;;;-141.50;100.00;63355.56;5077604;28;20097;-80
2022/03/18 01:03:15;;;;;;;41.42;18.85;;;;;;;-141.50;100.00;63355.56;5094813;28;20082;-77
2022/03/18 01:05:43;;;;;;;42.17;18.48;;;;;;;-141.50;100.00;63355.56;5095717;28;20462;-78
2022/03/18 01:08:10;;;;;;;42.15;17.95;;;;;;;-141.50;100.00;63355.56;5099087;28;20078;-79
2022/03/18 01:10:36;;;;;;;47.38;18.45;;;;;;;-141.50;100.00;63355.56;5087328;28;20060;-81
2022/03/18 01:13:03;;;;;;;40.03;17.42;;;;;;;-141.50;100.00;63355.56;5099092;28;20078;-77
2022/03/18 01:15:30;;;;;;;43.20;17.13;;;;;;;-141.50;100.00;63355.56;5099116;28;20072;-79
2022/03/18 01:17:56;;;;;;;40.42;17.10;;;;;;;-141.50;100.00;63355.56;5101921;28;20123;-81
2022/03/18 01:20:23;;;;;;;38.85;16.27;;;;;;;-141.50;100.00;63355.56;5093607;28;20052;-80
2022/03/18 01:22:49;;;;;;;37.97;16.40;;;;;;;-141.50;100.00;63355.56;5095298;28;20052;-78
2022/03/18 01:25:16;;;;;;;39.10;17.90;;;;;;;-141.50;100.00;63355.56;5066702;28;20563;-78
2022/03/18 01:27:43;;;;;;;42.05;17.00;;;;;;;-141.50;100.00;63355.56;5073758;28;20041;-79
2022/03/18 01:30:10;;;;;;;44.13;16.40;;;;;;;-141.50;100.00;63355.56;5072964;28;20088;-79
2022/03/18 01:32:37;;;;;;;40.88;17.17;;;;;;;-141.50;100.00;63355.56;5074204;28;20068;-77
2022/03/18 01:35:03;;;;;;;38.90;17.40;;;;;;;-141.50;100.00;63355.56;5077908;28;20048;-81
2022/03/18 01:37:30;;;;;;;43.72;17.17;;;;;;;-141.50;100.00;63355.56;5081684;28;20082;-79
2022/03/18 01:39:59;;;;;;;38.45;17.88;;;;;;;-141.50;100.00;63355.56;5079681;28;20055;-78
2022/03/18 01:42:26;;;;;;;46.35;18.98;;;;;;;-141.50;100.00;63355.56;5078602;28;20053;-79
2022/03/18 01:44:52;;;;;;;38.70;17.45;;;;;;;-141.50;100.00;63355.56;5087643;28;20107;-79
2022/03/18 01:47:19;;;;;;;39.22;17.80;;;;;;;-141.50;100.00;63355.56;5100952;28;20044;-80
2022/03/18 01:49:46;;;;;;;44.17;18.02;;;;;;;-141.50;100.00;63355.56;5107032;28;20062;-79
2022/03/18 01:52:13;;;;;;;44.22;18.52;;;;;;;-141.50;100.00;63355.56;5105167;28;20044;-79
2022/03/18 01:54:47;;;;;;;46.45;18.67;;;;;;;-141.50;100.00;63355.56;5105543;28;20090;-78
2022/03/18 01:57:26;;;;;;;52.53;19.17;;;;;;;-141.50;100.00;63355.56;5104350;28;20056;-80
2022/03/18 01:59:53;;;;;;;51.33;18.42;;;;;;;-141.50;100.00;63355.56;5099501;28;20047;-78
2022/03/18 02:02:20;;;;;;;50.00;19.50;;;;;;;-141.50;100.00;63355.56;5100530;28;20512;-79
2022/03/18 02:04:48;;;;;;;47.35;19.30;;;;;;;-141.50;100.00;63355.56;5101855;28;20056;-79
2022/03/18 02:07:15;;;;;;;53.63;19.58;;;;;;;-141.50;100.00;63355.56;5110384;28;20035;-81
2022/03/18 02:09:43;;;;;;;55.53;19.45;;;;;;;-141.50;100.00;63355.56;5101613;28;20032;-82
2022/03/18 02:12:10;;;;;;;44.72;21.05;;;;;;;-141.50;100.00;63355.56;5120138;28;20048;-82
2022/03/18 02:14:43;;;;;;;47.17;19.40;;;;;;;-141.50;100.00;63355.56;5087620;28;20059;-79
2022/03/18 02:17:12;;;;;;;48.75;20.27;;;;;;;-141.50;100.00;63355.56;5100027;28;20040;-78
2022/03/18 02:19:40;;;;;;;47.90;19.92;;;;;;;-141.50;100.00;63355.56;5108551;28;20070;-80
2022/03/18 02:22:22;;;;;;;53.50;19.23;;;;;;;-141.50;100.00;63355.56;5107226;28;20048;-79
2022/03/18 02:24:51;;;;;;;41.80;17.63;;;;;;;-141.50;100.00;63355.56;5100975;28;20108;-79
2022/03/18 02:27:19;;;;;;;41.78;17.85;;;;;;;-141.50;100.00;63355.56;5099108;28;20440;-80
2022/03/18 02:29:45;;;;;;;46.33;18.42;;;;;;;-141.50;100.00;63355.56;5097839;28;20064;-77
2022/03/18 02:32:18;;;;;;;43.67;18.48;;;;;;;-141.50;100.00;63355.56;5095254;28;20512;-80
2022/03/18 02:34:44;;;;;;;49.05;19.45;;;;;;;-141.50;100.00;63355.56;5096026;28;20058;-77
2022/03/18 02:37:11;;;;;;;56.30;21.42;;;;;;;-141.50;100.00;63355.56;5099737;28;20040;-79
2022/03/18 02:39:38;;;;;;;51.78;20.45;;;;;;;-141.50;100.00;63355.56;5100918;28;20109;-80
2022/03/18 02:42:05;;;;;;;51.80;19.35;;;;;;;-141.50;100.00;63355.56;5099444;28;20581;-79
2022/03/18 02:44:32;;;;;;;53.60;21.27;;;;;;;-141.50;100.00;63355.56;5099899;28;20391;-79
2022/03/18 02:46:59;;;;;;;57.40;21.42;;;;;;;-141.50;100.00;63355.56;5091005;28;20040;-78
2022/03/18 02:49:25;;;;;;;52.35;20.70;;;;;;;-141.50;100.00;63355.56;5078723;28;20087;-77
2022/03/18 02:51:52;;;;;;;51.42;20.33;;;;;;;-141.50;100.00;63355.56;5077362;28;20052;-77
2022/03/18 02:54:19;;;;;;;46.40;19.42;;;;;;;-141.50;100.00;63355.56;5057027;28;20083;-81
2022/03/18 02:56:45;;;;;;;41.30;18.30;;;;;;;-141.50;100.00;63355.56;5076127;28;20598;-79
2022/03/18 02:59:12;;;;;;;49.35;18.52;;;;;;;-141.50;100.00;63355.56;5079422;28;20080;-79
2022/03/18 03:01:38;;;;;;;49.22;18.60;;;;;;;-141.50;100.00;63355.56;5083746;28;20045;-79
2022/03/18 03:04:05;;;;;;;48.00;18.90;;;;;;;-141.50;100.00;63355.56;5064722;28;20097;-80
2022/03/18 03:09:17;;;;;;;39.90;16.63;;;;;;;-141.50;100.00;63355.56;5078267;28;20107;-77
2022/03/18 03:11:44;;;;;;;45.58;16.85;;;;;;;-141.50;100.00;63355.56;5078698;28;20052;-80
2022/03/18 03:14:12;;;;;;;45.88;17.27;;;;;;;-141.50;100.00;63355.56;5075127;28;20060;-78
2022/03/18 03:16:39;;;;;;;45.53;16.98;;;;;;;-141.50;100.00;63355.56;5079296;28;20500;-79
2022/03/18 03:19:05;;;;;;;44.88;16.52;;;;;;;-141.50;100.00;63355.56;5080230;28;20090;-79
2022/03/18 03:21:34;;;;;;;37.80;15.65;;;;;;;-141.50;100.00;63355.56;5065972;28;20060;-81
2022/03/18 03:24:01;;;;;;;40.90;16.00;;;;;;;-141.50;100.00;63355.56;5089646;28;20051;-80
2022/03/18 03:26:28;;;;;;;40.97;16.52;;;;;;;-141.50;100.00;63355.56;5096772;28;20048;-81
2022/03/18 03:28:55;;;;;;;39.03;15.88;;;;;;;-141.50;100.00;63355.56;5077150;28;20055;-79
2022/03/18 03:31:21;;;;;;;33.22;14.90;;;;;;;-141.50;100.00;63355.56;5101840;28;20048;-78
2022/03/18 03:33:48;;;;;;;42.17;14.85;;;;;;;-141.50;100.00;63355.56;5101635;28;20066;-79
2022/03/18 03:36:14;;;;;;;39.95;15.40;;;;;;;-141.50;100.00;63355.56;5100191;28;20598;-79
2022/03/18 03:38:41;;;;;;;36.17;14.88;;;;;;;-141.50;100.00;63355.56;5098850;28;20118;-80
2022/03/18 03:41:08;;;;;;;39.33;14.45;;;;;;;-141.50;100.00;63355.56;5103350;28;20048;-79
2022/03/18 03:43:35;;;;;;;43.30;15.80;;;;;;;-141.50;100.00;63355.56;5099136;28;20146;-79
2022/03/18 03:46:02;;;;;;;37.22;14.52;;;;;;;-141.50;100.00;63355.56;5071887;28;20083;-80
2022/03/18 03:48:28;;;;;;;45.63;13.95;;;;;;;-141.50;100.00;63355.56;5080340;28;20282;-79
2022/03/18 03:50:55;;;;;;;39.15;14.35;;;;;;;-141.50;100.00;63355.56;5074171;28;20116;-77
2022/03/18 03:53:22;;;;;;;41.90;14.80;;;;;;;-141.50;100.00;63355.56;5074747;28;20106;-79
2022/03/18 03:55:48;;;;;;;39.53;15.63;;;;;;;-141.50;100.00;63355.56;5074332;28;20049;-78
2022/03/18 03:58:15;;;;;;;44.25;14.95;;;;;;;-141.50;100.00;63355.56;5072649;28;20075;-79
2022/03/18 04:00:41;;;;;;;42.03;15.55;;;;;;;-141.50;100.00;63355.56;5057005;28;20102;-79
2022/03/18 04:03:08;;;;;;;58.47;16.55;;;;;;;-141.50;100.00;63355.56;5073710;28;20147;-78
2022/03/18 04:05:35;;;;;;;37.35;14.98;;;;;;;-141.50;100.00;63355.56;5078508;28;20050;-79
2022/03/18 04:08:02;;;;;;;44.05;15.40;;;;;;;-141.50;100.00;63355.56;5053098;28;20082;-78
2022/03/18 04:10:29;;;;;;;42.38;14.95;;;;;;;-141.50;100.00;63355.56;5070168;28;20079;-79
2022/03/18 04:12:55;;;;;;;41.25;14.80;;;;;;;-141.50;100.00;63355.56;5073393;28;20101;-79
2022/03/18 04:15:23;;;;;;;35.83;13.93;;;;;;;-141.50;100.00;63355.56;5080594;28;20389;-79
2022/03/18 04:17:50;;;;;;;35.40;15.43;;;;;;;-141.50;100.00;63355.56;5090686;28;20610;-76
2022/03/18 04:20:20;;;;;;;31.77;13.75;;;;;;;-141.50;100.00;63355.56;5091042;28;20117;-78
2022/03/18 04:22:47;;;;;;;39.10;14.32;;;;;;;-141.50;100.00;63355.56;5092394;28;20619;-79
2022/03/18 04:25:14;;;;;;;31.88;12.82;;;;;;;-141.50;100.00;63355.56;5093319;28;20082;-78
2022/03/18 04:27:42;;;;;;;29.92;12.73;;;;;;;-141.50;100.00;63355.56;5094614;28;20048;-78
2022/03/18 04:30:11;;;;;;;42.47;14.60;;;;;;;-141.50;100.00;63355.56;5094249;28;20537;-77
2022/03/18 04:32:38;;;;;;;38.38;14.10;;;;;;;-141.50;100.00;63355.56;5098780;28;20101;-78
2022/03/18 04:35:06;;;;;;;60.97;19.27;;;;;;;-141.50;100.00;63355.56;5097487;28;20054;-76
2022/03/18 04:37:33;;;;;;;56.75;18.02;;;;;;;-141.50;100.00;63355.56;5102676;28;20052;-78
2022/03/18 04:40:00;;;;;;;38.58;13.25;;;;;;;-141.50;100.00;63355.56;5099680;28;20048;-79
2022/03/18 04:42:27;;;;;;;30.00;13.05;;;;;;;-141.50;100.00;63355.56;5098425;28;20079;-79
2022/03/18 04:44:53;;;;;;;30.48;11.18;;;;;;;-141.50;100.00;63355.56;5098441;28;20048;-79
2022/03/18 04:47:20;;;;;;;35.20;11.65;;;;;;;-141.50;100.00;63355.56;5088940;28;20068;-77
2022/03/18 04:49:47;;;;;;;28.90;9.68;;;;;;;-141.50;100.00;63355.56;5083454;28;20052;-80
2022/03/18 04:52:14;;;;;;;35.35;9.32;;;;;;;-141.50;100.00;63355.56;5069327;28;20080;-79
2022/03/18 04:54:40;;;;;;;26.20;9.10;;;;;;;-141.50;100.00;63355.56;5084524;28;20051;-79
2022/03/18 04:57:16;;;;;;;29.73;9.38;;;;;;;-141.50;100.00;63355.56;5081355;28;20052;-78
2022/03/18 04:59:42;;;;;;;29.67;9.75;;;;;;;-141.50;100.00;63355.56;5077760;28;20104;-76
2022/03/18 05:02:14;;;;;;;25.92;8.02;;;;;;;-141.50;100.00;63355.56;5077488;28;20064;-76
2022/03/18 05:04:42;;;;;;;28.30;7.78;;;;;;;-141.50;100.00;63355.56;5079611;28;20076;-77
2022/03/18 05:07:11;;;;;;;23.50;7.95;;;;;;;-141.50;100.00;63355.56;5073879;28;20054;-77
2022/03/18 05:09:39;;;;;;;25.45;7.97;;;;;;;-141.50;100.00;63355.56;5092931;28;20086;-77
2022/03/18 05:12:11;;;;;;;25.70;7.43;;;;;;;-141.50;100.00;63355.56;5094886;28;20059;-78
2022/03/18 05:14:39;;;;;;;23.65;7.20;;;;;;;-141.50;100.00;63355.56;5096392;28;20048;-79
2022/03/18 05:17:08;;;;;;;23.75;6.45;;;;;;;-141.50;100.00;63355.56;5078087;28;20044;-77
2022/03/18 05:19:35;;;;;;;19.40;7.35;;;;;;;-141.50;100.00;63355.56;5095748;28;20048;-77
2022/03/18 05:22:02;;;;;;;28.17;7.13;;;;;;;-141.50;100.00;63355.56;5099006;28;20151;-79
2022/03/18 05:24:29;;;;;;;28.92;8.00;;;;;;;-141.50;100.00;63355.56;5094124;28;20048;-77
2022/03/18 05:26:57;;;;;;;24.58;7.60;;;;;;;-141.50;100.00;63355.56;5092763;28;20074;-80
2022/03/18 05:29:29;;;;;;;23.33;7.85;;;;;;;-141.50;100.00;63355.56;5094815;28;20063;-81
2022/03/18 05:31:57;;;;;;;24.00;7.70;;;;;;;-141.50;100.00;63355.56;5099391;28;20446;-81
2022/03/18 05:34:24;;;;;;;22.13;6.47;;;;;;;-141.50;100.00;63355.56;5099113;28;20052;-80
2022/03/18 05:36:51;;;;;;;27.25;6.85;;;;;;;-141.50;100.00;63355.56;5103399;28;20039;-82
2022/03/18 05:39:18;;;;;;;21.27;7.20;;;;;;;-141.50;100.00;63355.56;5115251;28;20060;-82
2022/03/18 05:41:44;;;;;;;23.45;6.68;;;;;;;-141.50;100.00;63355.56;5097281;28;20029;-81
2022/03/18 05:44:12;;;;;;;20.98;6.82;;;;;;;-141.50;100.00;63355.56;5088410;28;20048;-79
2022/03/18 05:46:44;;;;;;;24.23;7.10;;;;;;;-141.50;100.00;63355.56;5103657;28;20048;-81
2022/03/18 05:49:11;;;;;;;26.40;7.43;;;;;;;-141.50;100.00;63355.56;5106744;28;20044;-82
2022/03/18 05:51:38;;;;;;;21.33;7.40;;;;;;;-141.50;100.00;63355.56;5108040;28;20054;-81
2022/03/18 05:54:04;;;;;;;25.35;6.82;;;;;;;-141.50;100.00;63355.56;5105776;28;20138;-77
2022/03/18 05:59:17;;;;;;;20.83;6.93;;;;;;;-141.50;100.00;63355.56;5108390;28;20048;-81
2022/03/18 06:01:46;;;;;;;30.00;7.10;;;;;;;-141.50;100.00;63355.56;5105091;28;20071;-80
2022/03/18 06:04:16;;;;;;;29.30;7.55;;;;;;;-141.50;100.00;63355.56;5105896;28;20058;-80
2022/03/18 06:06:44;;;;;;;29.08;7.15;;;;;;;-141.50;100.00;63355.56;5107344;28;20076;-79
2022/03/18 06:11:56;;;;;;;37.22;9.40;;;;;;;-141.50;100.00;63355.56;5100665;28;20087;-80
2022/03/18 06:14:25;;;;;;;28.20;7.25;;;;;;;-141.50;100.00;63355.56;5094048;28;20051;-80
2022/03/18 06:16:54;;;;;;;32.28;7.95;;;;;;;-141.50;100.00;63355.56;5098114;28;20044;-79
2022/03/18 06:19:23;;;;;;;31.70;7.32;;;;;;;-141.50;100.00;63355.56;5100463;28;20473;-80
2022/03/18 06:21:50;;;;;;;29.58;6.65;;;;;;;-141.50;100.00;63355.56;5103603;28;20062;-80
2022/03/18 06:24:18;;;;;;;26.25;7.78;;;;;;;-141.50;100.00;63355.56;5089889;28;20088;-81
2022/03/18 06:26:45;;;;;;;41.28;13.63;;;;;;;-141.50;100.00;63355.56;5080657;28;20163;-81
2022/03/18 06:29:11;;;;;;;36.25;9.07;;;;;;;-141.50;100.00;63355.56;5095459;28;20132;-80
2022/03/18 06:31:39;;;;;;;32.65;10.25;;;;;;;-141.50;100.00;63355.56;5087706;28;20059;-79
2022/03/18 06:34:07;;;;;;;37.67;7.80;;;;;;;-141.50;100.00;63355.56;5080511;28;20535;-83
2022/03/18 06:36:35;;;;;;;32.78;8.63;;;;;;;-141.50;100.00;63355.56;5083714;28;20056;-79
2022/03/18 06:39:03;;;;;;;36.47;9.95;;;;;;;-141.50;100.00;63355.56;5096892;28;20056;-81
2022/03/18 06:41:31;;;;;;;34.97;9.30;;;;;;;-141.50;100.00;63355.56;5103536;28;20085;-81
2022/03/18 06:43:58;;;;;;;30.02;7.25;;;;;;;-141.50;100.00;63355.56;5102412;28;20079;-80
2022/03/18 06:46:25;;;;;;;35.75;9.70;;;;;;;-141.50;100.00;63355.56;5096236;28;20052;-80
2022/03/18 06:48:52;;;;;;;41.17;9.98;;;;;;;-141.50;100.00;63355.56;5086600;28;20058;-79
2022/03/18 06:51:19;;;;;;;36.72;9.48;;;;;;;-141.50;100.00;63355.56;5082846;28;20060;-82
2022/03/18 06:53:46;;;;;;;36.13;8.07;;;;;;;-141.50;100.00;63355.56;5099040;28;20077;-81
2022/03/18 06:56:12;;;;;;;40.85;10.05;;;;;;;-141.50;100.00;63355.56;5084517;28;20098;-80
2022/03/18 06:58:40;;;;;;;43.17;10.15;;;;;;;-141.50;100.00;63355.56;5086337;28;20118;-77
2022/03/18 07:01:06;;;;;;;31.13;10.05;;;;;;;-141.50;100.00;63355.56;5100049;28;20044;-79
2022/03/18 07:03:34;;;;;;;50.05;9.82;;;;;;;-141.50;100.00;63355.56;5101590;28;20055;-80
2022/03/18 07:06:01;;;;;;;37.92;9.32;;;;;;;-141.50;100.00;63355.56;5089788;28;20049;-80
2022/03/18 07:08:28;;;;;;;49.42;10.68;;;;;;;-141.50;100.00;63355.56;5082538;28;20048;-79
2022/03/18 07:10:57;;;;;;;45.55;11.77;;;;;;;-141.50;100.00;63355.56;5086475;28;20046;-81
2022/03/18 07:13:24;;;;;;;52.00;10.98;;;;;;;-141.50;100.00;63355.56;5089769;28;20123;-78
2022/03/18 07:15:50;;;;;;;48.58;11.13;;;;;;;-141.50;100.00;63355.56;5082371;28;20070;-79
2022/03/18 07:18:17;;;;;;;48.38;10.75;;;;;;;-141.50;100.00;63355.56;5105955;28;20068;-81
2022/03/18 07:20:43;;;;;;;36.78;10.77;;;;;;;-141.50;100.00;63355.56;5109631;28;20048;-82
2022/03/18 07:23:15;;;;;;;41.28;11.07;;;;;;;-141.50;100.00;63355.56;5101894;28;20051;-81
2022/03/18 07:25:44;;;;;;;45.72;10.93;;;;;;;-141.50;100.00;63355.56;5094219;28;20048;-79
2022/03/18 07:28:16;;;;;;;50.97;10.65;;;;;;;-141.50;100.00;63355.56;5102807;28;20066;-79
2022/03/18 07:30:44;;;;;;;37.15;10.43;;;;;;;-141.50;100.00;63355.56;5120361;28;20082;-81
2022/03/18 07:33:11;;;;;;;45.13;11.13;;;;;;;-141.50;100.00;63355.56;5121031;28;20051;-79
2022/03/18 07:35:38;;;;;;;44.28;11.18;;;;;;;-141.50;100.00;63355.56;5115989;28;20063;-80
2022/03/18 07:38:09;;;;;;;39.00;10.65;;;;;;;-141.50;100.00;63355.56;5117623;28;20103;-79
2022/03/18 07:40:39;;;;;;;52.17;12.00;;;;;;;-141.50;100.00;63355.56;5112911;28;20059;-79
2022/03/18 07:43:07;;;;;;;40.53;11.18;;;;;;;-141.50;100.00;63355.56;5096436;28;20079;-80
2022/03/18 07:45:35;;;;;;;47.40;11.90;;;;;;;-141.50;100.00;63355.56;5094600;28;20512;-81
2022/03/18 07:48:07;;;;;;;46.33;12.30;;;;;;;-141.50;100.00;63355.56;5098628;28;20056;-80
2022/03/18 07:50:36;;;;;;;54.00;11.52;;;;;;;-141.50;100.00;63355.56;5096743;28;20309;-79
2022/03/18 07:53:06;;;;;;;46.72;11.27;;;;;;;-141.50;100.00;63355.56;5097726;28;20044;-80
2022/03/18 07:55:35;;;;;;;47.58;11.82;;;;;;;-141.50;100.00;63355.56;5097020;28;20052;-80
2022/03/18 07:58:06;;;;;;;43.58;12.07;;;;;;;-141.50;100.00;63355.56;5094491;28;20083;-78
2022/03/18 08:00:34;;;;;;;52.20;12.00;;;;;;;-141.50;100.00;63355.56;5118044;28;20483;-79
2022/03/18 08:03:02;;;;;;;62.65;13.05;;;;;;;-141.50;100.00;63355.56;5102515;28;20059;-78
2022/03/18 08:05:29;;;;;;;43.60;12.27;;;;;;;-141.50;100.00;63355.56;5101166;28;20056;-79
2022/03/18 08:07:57;;;;;;;76.60;15.40;;;;;;;-141.50;100.00;63355.56;5097845;28;20040;-79
2022/03/18 08:10:24;;;;;;;57.10;12.90;;;;;;;-141.50;100.00;63355.56;5103045;28;20048;-81
2022/03/18 08:12:52;;;;;;;87.38;16.52;;;;;;;-141.50;100.00;63355.56;5104677;28;20505;-80
2022/03/18 08:15:20;;;;;;;98.90;20.95;;;;;;;-141.50;100.00;63355.56;5103551;28;20052;-80
2022/03/18 08:17:52;;;;;;;45.33;10.10;;;;;;;-141.50;100.00;63355.56;5099253;28;20044;-80
2022/03/18 08:20:20;;;;;;;44.47;9.30;;;;;;;-141.50;100.00;63355.56;5096292;28;20082;-80
2022/03/18 08:22:49;;;;;;;73.82;14.95;;;;;;;-141.50;100.00;63355.56;5082130;28;20179;-79
2022/03/18 08:25:16;;;;;;;103.03;18.80;;;;;;;-141.50;100.00;63355.56;5062147;28;20452;-79
2022/03/18 08:27:43;;;;;;;42.90;10.25;;;;;;;-141.50;100.00;63355.56;5084058;28;20089;-78
2022/03/18 08:30:13;;;;;;;153.50;23.92;;;;;;;-141.50;100.00;63355.56;5092786;28;20091;-80
2022/03/18 08:32:40;;;;;;;110.93;19.75;;;;;;;-141.50;100.00;63355.56;5102656;28;20048;-78
2022/03/18 08:35:09;;;;;;;80.85;17.48;;;;;;;-141.50;100.00;63355.56;5096893;28;20094;-79
2022/03/18 08:40:22;;;;;;;37.93;9.53;;;;;;;-141.50;100.00;63355.56;5092301;28;20056;-77
2022/03/18 08:42:49;;;;;;;59.78;11.15;;;;;;;-141.50;100.00;63355.56;5101033;28;20294;-80
2022/03/18 08:45:18;;;;;;;46.45;8.63;;;;;;;-141.50;100.00;63355.56;5107007;28;20081;-80
2022/03/18 08:47:45;;;;;;;40.60;8.55;;;;;;;-141.50;100.00;63355.56;5098533;28;20047;-80
2022/03/18 08:50:13;;;;;;;60.50;9.82;;;;;;;-141.50;100.00;63355.56;5101469;28;20055;-80
2022/03/18 08:52:39;;;;;;;51.28;8.88;;;;;;;-141.50;100.00;63355.56;5100623;28;20056;-80
2022/03/18 08:55:07;;;;;;;47.53;10.65;;;;;;;-141.50;100.00;63355.56;5081387;28;20048;-81
2022/03/18 08:57:37;;;;;;;71.43;17.77;;;;;;;-141.50;100.00;63355.56;5105150;28;20090;-78
2022/03/18 09:00:07;;;;;;;67.22;14.05;;;;;;;-141.50;100.00;63355.56;5104334;28;20102;-79
2022/03/18 09:02:35;;;;;;;73.85;16.05;;;;;;;-141.50;100.00;63355.56;5103920;28;20048;-80
2022/03/18 09:05:04;;;;;;;68.97;15.77;;;;;;;-141.50;100.00;63355.56;5087773;28;20058;-83
2022/03/18 09:07:31;;;;;;;74.75;16.70;;;;;;;-141.50;100.00;63355.56;5115065;28;20082;-80
2022/03/18 09:09:59;;;;;;;72.55;14.45;;;;;;;-141.50;100.00;63355.56;5114829;28;20040;-82
2022/03/18 09:12:26;;;;;;;50.03;11.98;;;;;;;-141.50;100.00;63355.56;5082503;28;20091;-80
2022/03/18 09:14:54;;;;;;;55.92;14.05;;;;;;;-141.50;100.00;63355.56;5078112;28;20114;-79
2022/03/18 09:17:21;;;;;;;45.38;12.63;;;;;;;-141.50;100.00;63355.56;5080906;28;20118;-79
2022/03/18 09:19:48;;;;;;;55.45;11.40;;;;;;;-141.50;100.00;63355.56;5096985;28;20047;-80
2022/03/18 09:22:16;;;;;;;45.95;10.43;;;;;;;-141.50;100.00;63355.56;5104489;28;20109;-79
2022/03/18 09:24:44;;;;;;;40.05;9.30;;;;;;;-141.50;100.00;63355.56;5088510;28;20107;-79
2022/03/18 09:27:12;;;;;;;49.00;11.23;;;;;;;-141.50;100.00;63355.56;5103487;28;20083;-83
2022/03/18 09:29:38;;;;;;;49.13;10.00;;;;;;;-141.50;100.00;63355.56;5106749;28;20059;-82
2022/03/18 09:32:05;;;;;;;45.95;10.23;;;;;;;-141.50;100.00;63355.56;5090524;28;20036;-82
2022/03/18 09:34:34;;;;;;;39.67;10.88;;;;;;;-141.50;100.00;63355.56;5088304;28;20048;-80
2022/03/18 09:37:02;;;;;;;44.83;10.23;;;;;;;-141.50;100.00;63355.56;5092268;28;20040;-81
2022/03/18 09:39:29;;;;;;;38.58;9.65;;;;;;;-141.50;100.00;63355.56;5082953;28;20090;-82
2022/03/18 09:42:02;;;;;;;46.15;10.02;;;;;;;-141.50;100.00;63355.56;5084066;28;20060;-83
2022/03/18 09:44:36;;;;;;;49.40;10.15;;;;;;;-141.50;100.00;63355.56;5087915;28;20048;-81
2022/03/18 09:47:06;;;;;;;39.08;8.50;;;;;;;-141.50;100.00;63355.56;5099170;28;20049;-79
2022/03/18 09:49:34;;;;;;;48.08;9.38;;;;;;;-141.50;100.00;63355.56;5091316;28;20040;-81
2022/03/18 09:52:03;;;;;;;43.15;9.32;;;;;;;-141.50;100.00;63355.56;5109424;28;20059;-80
2022/03/18 09:54:30;;;;;;;43.50;8.75;;;;;;;-141.50;100.00;63355.56;5103128;28;20052;-79
2022/03/18 09:56:59;;;;;;;42.13;9.27;;;;;;;-141.50;100.00;63355.56;5105109;28;20056;-81
2022/03/18 09:59:27;;;;;;;40.50;8.95;;;;;;;-141.50;100.00;63355.56;5103760;28;20055;-80
2022/03/18 10:02:23;;;;;;;46.20;10.80;;;;;;;-141.50;100.00;63355.56;5092422;28;20044;-80
2022/03/18 10:04:58;;;;;;;34.67;8.35;;;;;;;-141.50;100.00;63355.56;5094531;28;20075;-81
2022/03/18 10:07:26;;;;;;;39.83;9.98;;;;;;;-141.50;100.00;63355.56;5106208;28;20044;-80
2022/03/18 10:10:11;;;;;;;42.97;9.00;;;;;;;-141.50;100.00;63355.56;5107443;28;20043;-81
2022/03/18 10:12:38;;;;;;;45.35;8.40;;;;;;;-141.50;100.00;63355.56;5089434;28;20048;-79
2022/03/18 10:15:17;;;;;;;39.40;10.38;;;;;;;-141.50;100.00;63355.56;5102566;28;20056;-79
2022/03/18 10:17:50;;;;;;;49.92;12.25;;;;;;;-141.50;100.00;63355.56;5102352;28;20117;-81
2022/03/18 10:20:35;;;;;;;41.97;10.73;;;;;;;-141.50;100.00;63355.56;5109299;28;20048;-79
2022/03/18 10:23:22;;;;;;;37.13;11.23;;;;;;;-141.50;100.00;63355.56;5110935;28;20059;-81
2022/03/18 10:25:52;;;;;;;59.83;13.10;;;;;;;-141.50;100.00;63355.56;5090038;28;20060;-80
2022/03/18 10:28:35;;;;;;;51.33;15.07;;;;;;;-141.50;100.00;63355.56;5082405;28;20117;-79
2022/03/18 10:31:11;;;;;;;46.03;11.43;;;;;;;-141.50;100.00;63355.56;5075692;28;20056;-80
2022/03/18 10:37:04;;;;;;;45.08;12.48;;;;;;;-141.50;100.00;63355.56;5076486;28;20048;-79
2022/03/18 10:39:35;;;;;;;36.72;12.27;;;;;;;-141.50;100.00;63355.56;5059543;28;20056;-79
2022/03/18 10:42:14;;;;;;;45.13;12.77;;;;;;;-141.50;100.00;63355.56;5076222;28;20114;-79
2022/03/18 10:44:43;;;;;;;37.13;12.80;;;;;;;-141.50;100.00;63355.56;5080760;28;20044;-79
2022/03/18 10:47:22;;;;;;;39.10;12.05;;;;;;;-141.50;100.00;63355.56;5088189;28;20224;-81
2022/03/18 10:49:49;;;;;;;43.67;13.43;;;;;;;-141.50;100.00;63355.56;5077906;28;20045;-80
2022/03/18 10:52:15;;;;;;;44.53;15.07;;;;;;;-141.50;100.00;63355.56;5074390;28;20076;-79
2022/03/18 10:54:42;;;;;;;47.28;14.18;;;;;;;-141.50;100.00;63355.56;5085735;28;20113;-80
2022/03/18 10:57:09;;;;;;;41.50;14.25;;;;;;;-141.50;100.00;63355.56;5099262;28;20052;-79
2022/03/18 10:59:35;;;;;;;43.20;14.63;;;;;;;-141.50;100.00;63355.56;5095030;28;20094;-77
2022/03/18 11:02:05;;;;;;;46.25;13.27;;;;;;;-141.50;100.00;63355.56;5078240;28;20341;-79
2022/03/18 11:04:32;;;;;;;42.83;12.32;;;;;;;-141.50;100.00;63355.56;5087817;28;20048;-80
2022/03/18 11:12:38;;;;;;;34.42;11.05;;;;;;;-141.50;100.00;63355.56;5077550;28;20051;-80
2022/03/18 11:15:07;;;;;;;36.15;11.10;;;;;;;-141.50;100.00;63355.56;5097107;28;20432;-80
2022/03/18 11:17:35;;;;;;;42.58;11.57;;;;;;;-141.50;100.00;63355.56;5097861;28;20086;-80
2022/03/18 11:20:10;;;;;;;35.38;13.88;;;;;;;-141.50;100.00;63355.56;5098955;28;20040;-80
2022/03/18 11:22:37;;;;;;;45.05;14.07;;;;;;;-141.50;100.00;63355.56;5095907;28;20098;-81
2022/03/18 11:25:06;;;;;;;40.47;13.98;;;;;;;-141.50;100.00;63355.56;5096244;28;20194;-78
2022/03/18 11:27:39;;;;;;;38.70;14.20;;;;;;;-141.50;100.00;63355.56;5091468;28;20056;-79